Time;durP1;ratioP1;P1;durP2;ratioP2;P2;SDS_P1;SDS_P2;PMS_P1;PMS_P2;Temp;Humidity;BMP_temperature;BMP_pressure;BME280_temperature;BME280_humidity;BME280_pressure;Samples;Min_cycle;Max_cycle;Signal;HPM_P1;HPM_P2
2023/03/16 00:00:48;;;;;;;3.85;2.38;;;5.30;99.90;;;;;;5001628;28;20623;-43
2023/03/16 00:03:19;;;;;;;4.13;1.98;;;5.20;99.90;;;;;;4997871;28;20212;-44
2023/03/16 00:05:48;;;;;;;3.53;1.92;;;5.20;99.90;;;;;;4999782;28;20042;-44
2023/03/16 00:08:15;;;;;;;3.83;2.17;;;5.20;99.90;;;;;;4987698;28;20033;-44
2023/03/16 00:10:45;;;;;;;2.80;2.08;;;5.30;99.90;;;;;;4993563;28;20045;-44
2023/03/16 00:13:15;;;;;;;2.63;2.20;;;5.30;99.90;;;;;;5000042;28;20037;-43
2023/03/16 00:15:48;;;;;;;3.63;2.20;;;5.30;99.90;;;;;;5001630;28;20042;-44
2023/03/16 00:18:13;;;;;;;3.05;2.30;;;5.30;99.90;;;;;;5000897;28;20760;-43
2023/03/16 00:20:39;;;;;;;3.10;2.08;;;5.30;99.90;;;;;;5000193;28;20033;-43
2023/03/16 00:23:04;;;;;;;3.67;2.28;;;5.40;99.90;;;;;;4999301;28;20798;-44
2023/03/16 00:25:32;;;;;;;2.72;1.90;;;5.40;99.90;;;;;;5001317;28;20030;-44
2023/03/16 00:27:58;;;;;;;1.88;1.55;;;5.40;99.90;;;;;;5000544;28;20029;-44
2023/03/16 00:30:24;;;;;;;2.58;1.80;;;5.40;99.90;;;;;;5000733;28;20736;-43
2023/03/16 00:32:52;;;;;;;3.28;2.35;;;5.50;99.90;;;;;;5001691;28;20538;-43
2023/03/16 00:35:18;;;;;;;3.58;2.20;;;5.50;99.90;;;;;;4997135;28;20037;-43
2023/03/16 00:37:43;;;;;;;3.22;2.10;;;5.50;99.90;;;;;;5001173;28;20650;-43
2023/03/16 00:40:11;;;;;;;6.38;2.30;;;5.50;99.90;;;;;;4999693;28;20091;-43
2023/03/16 00:42:36;;;;;;;4.18;2.22;;;5.50;99.90;;;;;;5000577;28;20029;-43
2023/03/16 00:45:04;;;;;;;2.17;1.98;;;5.60;99.90;;;;;;5000206;28;20037;-43
2023/03/16 00:47:31;;;;;;;4.80;2.40;;;5.60;99.90;;;;;;5000617;28;20076;-43
2023/03/16 00:50:03;;;;;;;3.33;2.13;;;5.50;99.90;;;;;;4993361;28;20029;-43
2023/03/16 00:52:34;;;;;;;2.20;2.00;;;5.60;99.90;;;;;;5000908;28;20026;-44
2023/03/16 00:55:02;;;;;;;4.20;2.08;;;5.50;99.90;;;;;;4998751;28;20839;-44
2023/03/16 00:57:30;;;;;;;2.90;2.15;;;5.50;99.90;;;;;;5000249;28;20060;-44
2023/03/16 01:00:05;;;;;;;2.58;2.13;;;5.50;99.90;;;;;;4992358;28;20103;-43
2023/03/16 01:02:35;;;;;;;2.55;2.20;;;5.50;99.90;;;;;;5000505;28;20450;-44
2023/03/16 01:05:01;;;;;;;3.03;2.47;;;5.50;99.90;;;;;;5000730;28;20026;-43
2023/03/16 01:07:27;;;;;;;4.35;2.50;;;5.50;99.90;;;;;;5000157;28;20072;-42
2023/03/16 01:09:52;;;;;;;2.80;2.30;;;5.50;99.90;;;;;;5000522;28;20053;-42
2023/03/16 01:12:18;;;;;;;4.75;2.38;;;5.50;99.90;;;;;;4999545;28;20409;-43
2023/03/16 01:14:44;;;;;;;3.47;2.40;;;5.50;99.90;;;;;;5000619;28;20045;-43
2023/03/16 01:17:12;;;;;;;3.58;2.40;;;5.50;99.90;;;;;;4999200;28;20735;-42
2023/03/16 01:19:40;;;;;;;3.05;2.22;;;5.50;99.90;;;;;;4998726;28;20455;-43
2023/03/16 01:22:07;;;;;;;3.85;2.40;;;5.50;99.90;;;;;;4999129;28;20034;-43
2023/03/16 01:24:33;;;;;;;2.72;2.25;;;5.50;99.90;;;;;;4999091;28;20026;-44
2023/03/16 01:26:59;;;;;;;4.75;2.50;;;5.50;99.90;;;;;;4999630;28;20040;-43
2023/03/16 01:29:25;;;;;;;3.80;2.80;;;5.50;99.90;;;;;;5000124;28;20026;-43
2023/03/16 01:31:54;;;;;;;4.07;2.40;;;5.60;99.90;;;;;;5000597;28;20034;-43
2023/03/16 01:34:20;;;;;;;3.15;2.40;;;5.60;99.90;;;;;;5000099;28;20088;-43
2023/03/16 01:36:47;;;;;;;3.55;2.60;;;5.60;99.90;;;;;;5000078;28;20476;-43
2023/03/16 01:39:14;;;;;;;4.25;2.80;;;5.60;99.90;;;;;;4999592;28;20795;-43
2023/03/16 01:41:47;;;;;;;4.13;2.90;;;5.60;99.90;;;;;;4999769;28;20034;-44
2023/03/16 01:44:15;;;;;;;4.28;2.80;;;5.60;99.90;;;;;;4989991;28;20048;-44
2023/03/16 01:46:43;;;;;;;4.43;2.90;;;5.60;99.90;;;;;;4989532;28;20390;-43
2023/03/16 01:49:28;;;;;;;4.90;2.80;;;5.50;99.90;;;;;;4999938;28;20030;-43
2023/03/16 01:52:01;;;;;;;5.88;2.70;;;5.60;99.90;;;;;;4999353;28;20062;-43
2023/03/16 01:54:31;;;;;;;3.35;2.40;;;5.50;99.90;;;;;;4995968;28;20147;-44
2023/03/16 01:57:06;;;;;;;3.13;2.83;;;5.50;99.90;;;;;;4986986;28;20046;-42
2023/03/16 02:00:09;;;;;;;4.53;2.70;;;5.50;99.90;;;;;;4999091;28;20037;-43
2023/03/16 02:02:38;;;;;;;;;;;5.50;99.90;;;;;;4990539;28;20132;-44
2023/03/16 02:05:20;;;;;;;3.33;2.80;;;5.50;99.90;;;;;;4998059;28;20801;-44
2023/03/16 02:07:51;;;;;;;3.60;2.50;;;5.50;99.90;;;;;;4999562;28;20429;-43
2023/03/16 02:10:18;;;;;;;3.22;2.58;;;5.50;99.90;;;;;;4997763;28;20096;-44
2023/03/16 02:12:44;;;;;;;2.67;2.47;;;5.50;99.90;;;;;;4998363;28;20034;-43
2023/03/16 02:15:12;;;;;;;4.07;2.70;;;5.50;99.90;;;;;;4999348;28;20053;-44
2023/03/16 02:17:40;;;;;;;3.10;2.20;;;5.50;99.90;;;;;;4992143;28;20026;-43
2023/03/16 02:20:41;;;;;;;4.47;2.05;;;5.50;99.90;;;;;;4997805;28;20069;-43
2023/03/16 02:23:17;;;;;;;4.35;2.35;;;5.50;99.90;;;;;;5000177;28;20109;-43
2023/03/16 02:26:05;;;;;;;3.00;2.47;;;5.50;99.90;;;;;;5002971;28;20088;-43
2023/03/16 02:28:47;;;;;;;4.03;2.58;;;5.50;99.90;;;;;;5002204;28;20065;-42
2023/03/16 02:31:17;;;;;;;3.47;2.38;;;5.40;99.90;;;;;;5002609;28;20081;-43
2023/03/16 02:33:44;;;;;;;2.97;2.35;;;5.50;99.90;;;;;;5001686;28;20088;-43
2023/03/16 02:36:13;;;;;;;3.00;2.13;;;5.50;99.90;;;;;;4994438;28;20458;-43
2023/03/16 02:38:38;;;;;;;3.67;2.60;;;5.50;99.90;;;;;;4994049;28;20044;-44
2023/03/16 02:41:16;;;;;;;2.35;2.00;;;5.40;99.90;;;;;;5001853;28;20472;-44
2023/03/16 02:43:57;;;;;;;4.18;2.35;;;5.50;99.90;;;;;;5002537;28;20446;-43
2023/03/16 02:46:26;;;;;;;3.58;2.55;;;5.50;99.90;;;;;;5002138;28;20057;-42
2023/03/16 02:49:24;;;;;;;3.35;2.30;;;5.50;99.90;;;;;;5002433;28;20061;-43
2023/03/16 02:51:53;;;;;;;7.45;2.45;;;5.50;99.90;;;;;;4982733;28;20056;-43
2023/03/16 02:54:22;;;;;;;2.45;2.25;;;5.50;99.90;;;;;;4994586;28;20394;-43
2023/03/16 02:56:50;;;;;;;4.32;2.88;;;5.50;99.90;;;;;;5003402;28;20065;-44
2023/03/16 02:59:16;;;;;;;5.60;2.72;;;5.60;99.90;;;;;;5003202;28;20029;-44
2023/03/16 03:01:42;;;;;;;3.05;2.75;;;5.60;99.90;;;;;;5002195;28;20141;-43
2023/03/16 03:04:07;;;;;;;2.53;2.33;;;5.60;99.90;;;;;;5002635;28;20099;-43
2023/03/16 03:06:33;;;;;;;4.38;2.50;;;5.60;99.90;;;;;;5001596;28;20124;-43
2023/03/16 03:09:00;;;;;;;3.15;2.50;;;5.60;99.90;;;;;;4999462;28;20041;-43
2023/03/16 03:11:26;;;;;;;3.60;2.33;;;5.60;99.90;;;;;;4995296;28;20068;-42
2023/03/16 03:13:53;;;;;;;2.63;2.42;;;5.60;99.90;;;;;;4985473;28;20077;-44
2023/03/16 03:16:19;;;;;;;2.50;2.13;;;5.70;99.90;;;;;;4996840;28;20042;-44
2023/03/16 03:18:44;;;;;;;2.70;2.30;;;5.70;99.90;;;;;;5002623;28;20030;-43
2023/03/16 03:21:10;;;;;;;2.95;2.42;;;5.70;99.90;;;;;;5001631;28;20128;-43
2023/03/16 03:23:35;;;;;;;2.28;2.08;;;5.70;99.90;;;;;;5001951;28;20038;-44
2023/03/16 03:26:03;;;;;;;2.50;2.30;;;5.70;99.90;;;;;;5001571;28;20034;-44
2023/03/16 03:28:29;;;;;;;3.47;2.40;;;5.70;99.90;;;;;;5002563;28;20040;-43
2023/03/16 03:30:55;;;;;;;4.95;2.50;;;5.70;99.90;;;;;;5000105;28;20585;-44
2023/03/16 03:33:23;;;;;;;2.95;2.17;;;5.70;99.90;;;;;;5001129;28;20029;-43
2023/03/16 03:35:59;;;;;;;2.65;2.45;;;5.70;99.90;;;;;;5000289;28;20037;-43
2023/03/16 03:38:25;;;;;;;2.78;2.30;;;5.80;99.90;;;;;;5001894;28;20121;-44
2023/03/16 03:40:58;;;;;;;3.25;2.60;;;5.80;99.90;;;;;;4994110;28;20083;-43
2023/03/16 03:43:23;;;;;;;3.15;2.22;;;5.80;99.90;;;;;;4996611;28;20050;-43
2023/03/16 03:45:53;;;;;;;3.28;2.53;;;5.80;99.90;;;;;;5000978;28;20068;-43
2023/03/16 03:48:19;;;;;;;2.63;2.30;;;5.80;99.90;;;;;;5001328;28;20573;-43
2023/03/16 03:50:47;;;;;;;4.65;2.67;;;5.80;99.90;;;;;;5001337;28;20024;-43
2023/03/16 03:53:13;;;;;;;2.05;1.85;;;5.80;99.90;;;;;;5001092;28;20022;-43
2023/03/16 03:55:39;;;;;;;3.15;2.53;;;5.80;99.90;;;;;;5001689;28;20099;-43
2023/03/16 03:58:04;;;;;;;2.85;2.55;;;5.80;99.90;;;;;;4999338;28;20061;-44
2023/03/16 04:00:30;;;;;;;5.60;2.20;;;5.70;99.90;;;;;;5000774;28;20033;-43
2023/03/16 04:02:56;;;;;;;6.05;2.25;;;5.70;99.90;;;;;;5001121;28;20036;-44
2023/03/16 04:05:21;;;;;;;3.20;2.40;;;5.70;99.90;;;;;;4997763;28;20048;-44
2023/03/16 04:07:49;;;;;;;3.45;2.63;;;5.70;99.90;;;;;;5001195;28;20025;-44
2023/03/16 04:10:17;;;;;;;5.53;2.75;;;5.70;99.90;;;;;;5001235;28;20029;-44
2023/03/16 04:12:43;;;;;;;2.67;2.45;;;5.70;99.90;;;;;;5000613;28;20029;-44
2023/03/16 04:15:11;;;;;;;3.80;3.00;;;5.70;99.90;;;;;;5001050;28;20063;-43
2023/03/16 04:17:36;;;;;;;4.32;2.67;;;5.70;99.90;;;;;;5001436;28;20306;-43
2023/03/16 04:20:05;;;;;;;4.00;2.25;;;5.60;99.90;;;;;;4996747;28;20805;-44
2023/03/16 04:22:31;;;;;;;2.60;2.40;;;5.70;99.90;;;;;;4995722;28;20021;-44
2023/03/16 04:24:56;;;;;;;4.32;3.20;;;5.60;99.90;;;;;;5001757;28;20397;-44
2023/03/16 04:27:22;;;;;;;3.00;2.70;;;5.60;99.90;;;;;;4999784;28;20850;-44
2023/03/16 04:29:47;;;;;;;3.05;2.75;;;5.60;99.90;;;;;;5000927;28;20041;-43
2023/03/16 04:32:13;;;;;;;4.18;2.50;;;5.60;99.90;;;;;;4990268;28;20026;-42
2023/03/16 04:34:42;;;;;;;4.05;2.30;;;5.60;99.90;;;;;;5000750;28;20863;-43
2023/03/16 04:37:08;;;;;;;3.28;2.47;;;5.50;99.90;;;;;;5000458;28;20026;-44
2023/03/16 04:39:33;;;;;;;3.58;2.80;;;5.50;99.90;;;;;;5000334;28;20033;-44
2023/03/16 04:42:02;;;;;;;2.97;2.40;;;5.50;99.90;;;;;;5000426;28;20108;-44
2023/03/16 04:44:30;;;;;;;3.45;2.47;;;5.50;99.90;;;;;;5001366;28;20018;-44
2023/03/16 04:46:57;;;;;;;3.00;2.67;;;5.50;99.90;;;;;;4998006;28;20033;-44
2023/03/16 04:49:26;;;;;;;2.60;2.40;;;5.50;99.90;;;;;;5000380;28;20026;-43
2023/03/16 04:51:51;;;;;;;3.50;2.40;;;5.40;99.90;;;;;;4999649;28;20076;-42
2023/03/16 04:54:17;;;;;;;3.00;2.70;;;5.40;99.90;;;;;;4999296;28;20156;-43
2023/03/16 04:56:43;;;;;;;3.38;2.67;;;5.40;99.90;;;;;;4983437;28;20109;-43
2023/03/16 04:59:09;;;;;;;3.03;2.80;;;5.30;99.90;;;;;;4998647;28;20034;-43
2023/03/16 05:01:35;;;;;;;4.72;3.05;;;5.30;99.90;;;;;;5000403;28;20385;-43
2023/03/16 05:04:01;;;;;;;3.67;2.63;;;5.30;99.90;;;;;;5000435;28;20509;-43
2023/03/16 05:06:27;;;;;;;3.75;2.80;;;5.30;99.90;;;;;;4999622;28;20497;-43
2023/03/16 05:08:52;;;;;;;4.00;2.65;;;5.30;99.90;;;;;;4999309;28;20034;-43
2023/03/16 05:11:18;;;;;;;3.20;2.90;;;5.30;99.90;;;;;;4984971;28;20037;-43
2023/03/16 05:13:49;;;;;;;4.18;3.38;;;5.30;99.90;;;;;;4990318;28;20049;-45
2023/03/16 05:16:21;;;;;;;5.45;2.78;;;5.30;99.90;;;;;;4999195;28;20032;-44
2023/03/16 05:18:46;;;;;;;3.08;2.80;;;5.30;99.90;;;;;;4999808;28;20025;-43
2023/03/16 05:21:12;;;;;;;2.63;2.42;;;5.40;99.90;;;;;;4997434;28;20045;-42
2023/03/16 05:23:37;;;;;;;3.60;2.35;;;5.40;99.90;;;;;;4999975;28;20022;-42
2023/03/16 05:26:03;;;;;;;3.47;2.53;;;5.40;99.90;;;;;;5000330;28;20482;-42
2023/03/16 05:28:28;;;;;;;3.10;2.63;;;5.40;99.90;;;;;;5000190;28;20529;-44
2023/03/16 05:30:55;;;;;;;3.20;2.78;;;5.40;99.90;;;;;;4999366;28;20030;-44
2023/03/16 05:33:20;;;;;;;2.80;2.40;;;5.40;99.90;;;;;;4995619;28;20360;-43
2023/03/16 05:35:49;;;;;;;2.65;2.30;;;5.40;99.90;;;;;;4999510;28;20044;-44
2023/03/16 05:38:15;;;;;;;2.83;2.55;;;5.40;99.90;;;;;;5000088;28;20873;-45
2023/03/16 05:40:45;;;;;;;2.67;2.35;;;5.40;99.90;;;;;;5000488;28;20040;-43
2023/03/16 05:43:13;;;;;;;3.45;2.50;;;5.40;99.90;;;;;;4998922;28;20045;-43
2023/03/16 05:45:38;;;;;;;4.13;2.88;;;5.40;99.90;;;;;;4991867;28;20584;-44
2023/03/16 05:48:04;;;;;;;5.65;2.58;;;5.50;99.90;;;;;;4998801;28;20034;-44
2023/03/16 05:50:30;;;;;;;2.67;2.42;;;5.50;99.90;;;;;;4999277;28;20025;-44
2023/03/16 05:52:55;;;;;;;4.43;2.50;;;5.50;99.90;;;;;;5000002;28;20456;-44
2023/03/16 05:55:21;;;;;;;3.33;2.45;;;5.50;99.90;;;;;;4999339;28;20037;-44
2023/03/16 05:57:46;;;;;;;4.40;3.13;;;5.50;99.90;;;;;;4999753;28;20057;-43
2023/03/16 06:00:14;;;;;;;3.20;2.60;;;5.50;99.90;;;;;;4998635;28;20034;-43
2023/03/16 06:02:41;;;;;;;3.40;2.70;;;5.50;99.90;;;;;;4996897;28;20046;-43
2023/03/16 06:05:08;;;;;;;3.97;2.92;;;5.50;99.90;;;;;;5001481;28;20026;-44
2023/03/16 06:07:34;;;;;;;3.80;2.60;;;5.60;99.90;;;;;;4997982;28;20046;-44
2023/03/16 06:09:59;;;;;;;3.63;2.80;;;5.60;99.90;;;;;;4989744;28;20017;-44
2023/03/16 06:12:28;;;;;;;3.08;2.80;;;5.60;99.90;;;;;;5002658;28;20545;-42
2023/03/16 06:14:53;;;;;;;2.78;2.55;;;5.60;99.90;;;;;;5003675;28;20038;-43
2023/03/16 06:17:19;;;;;;;2.80;2.40;;;5.60;99.90;;;;;;5002676;28;20033;-44
2023/03/16 06:19:47;;;;;;;3.30;2.95;;;5.60;99.90;;;;;;5002821;28;20041;-43
2023/03/16 06:22:13;;;;;;;4.82;2.67;;;5.70;99.90;;;;;;5002288;28;20065;-46
2023/03/16 06:24:38;;;;;;;3.35;2.47;;;5.70;99.90;;;;;;5002297;28;20121;-43
2023/03/16 06:27:04;;;;;;;3.92;2.47;;;5.70;99.90;;;;;;4992828;28;20062;-44
2023/03/16 06:29:29;;;;;;;2.78;2.35;;;5.70;99.90;;;;;;4995438;28;20022;-43
2023/03/16 06:31:55;;;;;;;3.95;3.10;;;5.70;99.90;;;;;;4999036;28;20025;-43
2023/03/16 06:34:21;;;;;;;3.05;2.72;;;5.70;99.90;;;;;;5002425;28;20041;-43
2023/03/16 06:36:47;;;;;;;4.40;2.47;;;5.70;99.90;;;;;;5001258;28;20026;-43
2023/03/16 06:39:13;;;;;;;3.70;2.55;;;5.70;99.90;;;;;;4989279;28;20038;-44
2023/03/16 06:41:41;;;;;;;2.95;2.60;;;5.80;99.90;;;;;;4989373;28;20085;-43
2023/03/16 06:44:07;;;;;;;3.08;2.60;;;5.80;99.90;;;;;;4997224;28;20040;-44
2023/03/16 06:46:33;;;;;;;3.25;2.45;;;5.80;99.90;;;;;;4998060;28;20033;-44
2023/03/16 06:48:59;;;;;;;2.88;2.53;;;5.80;99.90;;;;;;5002755;28;20026;-43
2023/03/16 06:51:31;;;;;;;2.60;2.40;;;5.80;99.90;;;;;;5002654;28;20034;-43
2023/03/16 06:53:57;;;;;;;2.80;2.17;;;5.80;99.90;;;;;;5002134;28;20034;-43
2023/03/16 06:56:24;;;;;;;4.40;2.83;;;5.90;99.90;;;;;;5002513;28;20032;-43
2023/03/16 06:58:52;;;;;;;3.40;2.90;;;5.90;99.90;;;;;;4999383;28;20136;-43
2023/03/16 07:01:17;;;;;;;3.65;2.50;;;5.90;99.90;;;;;;4991131;28;20142;-43
2023/03/16 07:03:43;;;;;;;5.53;2.63;;;5.90;99.90;;;;;;5002607;28;20021;-43
2023/03/16 07:06:11;;;;;;;3.35;2.85;;;5.90;99.90;;;;;;4999512;28;20057;-43
2023/03/16 07:08:37;;;;;;;5.07;2.83;;;5.90;99.90;;;;;;5001197;28;20030;-43
2023/03/16 07:11:03;;;;;;;4.47;2.70;;;6.00;99.90;;;;;;4989434;28;20026;-42
2023/03/16 07:13:29;;;;;;;3.17;2.70;;;6.00;99.90;;;;;;4998783;28;20708;-43
2023/03/16 07:15:54;;;;;;;3.30;2.83;;;6.00;99.90;;;;;;4983398;28;20034;-43
2023/03/16 07:18:20;;;;;;;3.40;2.50;;;6.00;99.90;;;;;;4995436;28;20037;-43
2023/03/16 07:20:46;;;;;;;3.47;2.63;;;6.00;99.90;;;;;;4982028;28;20180;-43
2023/03/16 07:23:12;;;;;;;2.67;2.47;;;6.10;99.90;;;;;;4992483;28;20026;-43
2023/03/16 07:25:38;;;;;;;5.20;2.53;;;6.10;99.90;;;;;;5000959;28;20025;-43
2023/03/16 07:28:03;;;;;;;4.97;2.30;;;6.20;99.90;;;;;;4997034;28;20018;-43
2023/03/16 07:30:29;;;;;;;3.17;2.88;;;6.20;99.90;;;;;;5002740;28;20140;-43
2023/03/16 07:32:55;;;;;;;5.07;2.97;;;6.30;99.90;;;;;;5001837;28;20033;-43
2023/03/16 07:35:22;;;;;;;3.75;2.78;;;6.30;99.90;;;;;;5000908;28;20038;-43
2023/03/16 07:37:47;;;;;;;3.25;2.90;;;6.30;99.90;;;;;;5001970;28;20014;-43
2023/03/16 07:40:14;;;;;;;4.47;2.53;;;6.30;99.90;;;;;;5001371;28;20022;-43
2023/03/16 07:42:39;;;;;;;3.55;2.90;;;6.30;99.90;;;;;;4985907;28;20121;-43
2023/03/16 07:45:06;;;;;;;4.97;3.15;;;6.30;99.90;;;;;;5001243;28;20026;-43
2023/03/16 07:47:32;;;;;;;3.47;3.08;;;6.30;99.90;;;;;;5001524;28;20041;-43
2023/03/16 07:49:58;;;;;;;4.47;3.10;;;6.30;99.90;;;;;;5000230;28;20018;-43
2023/03/16 07:52:24;;;;;;;4.32;3.40;;;6.30;99.90;;;;;;4997773;28;20113;-43
2023/03/16 07:54:50;;;;;;;4.50;3.33;;;6.30;99.90;;;;;;4996242;28;20488;-44
2023/03/16 07:57:15;;;;;;;5.72;4.07;;;6.30;99.90;;;;;;4993580;28;20140;-43
2023/03/16 07:59:41;;;;;;;5.00;3.60;;;6.30;99.90;;;;;;4988847;28;20141;-43
2023/03/16 08:02:18;;;;;;;5.22;3.35;;;6.30;99.90;;;;;;4987976;28;20030;-44
2023/03/16 08:04:44;;;;;;;5.97;3.42;;;6.30;99.90;;;;;;4987367;28;20474;-43
2023/03/16 08:07:14;;;;;;;4.05;3.38;;;6.30;99.90;;;;;;4988408;28;20034;-43
2023/03/16 08:09:40;;;;;;;5.15;3.10;;;6.30;99.90;;;;;;4987592;28;20049;-43
2023/03/16 08:12:07;;;;;;;4.35;3.00;;;6.30;99.90;;;;;;4986536;28;20034;-43
2023/03/16 08:14:33;;;;;;;3.83;3.22;;;6.30;99.90;;;;;;4987320;28;20041;-43
2023/03/16 08:17:00;;;;;;;4.63;3.97;;;6.30;99.90;;;;;;4987066;28;20081;-43
2023/03/16 08:19:26;;;;;;;4.82;3.53;;;6.30;99.90;;;;;;4987569;28;20022;-43
2023/03/16 08:21:52;;;;;;;6.43;3.70;;;6.30;99.90;;;;;;4988072;28;20699;-43
2023/03/16 08:24:18;;;;;;;4.68;3.67;;;6.30;99.90;;;;;;4986904;28;20026;-43
2023/03/16 08:26:43;;;;;;;5.32;3.45;;;6.30;99.90;;;;;;4987539;28;20026;-43
2023/03/16 08:29:09;;;;;;;3.53;3.22;;;6.30;99.90;;;;;;4985115;28;20095;-43
2023/03/16 08:31:34;;;;;;;4.05;2.95;;;6.40;99.90;;;;;;4986997;28;21138;-43
2023/03/16 08:34:00;;;;;;;4.43;3.13;;;6.50;99.90;;;;;;4987464;28;20038;-43
2023/03/16 08:36:27;;;;;;;3.70;3.25;;;6.50;99.90;;;;;;4986126;28;20795;-43
2023/03/16 08:38:53;;;;;;;5.05;3.45;;;6.60;99.90;;;;;;4987705;28;20621;-44
2023/03/16 08:41:23;;;;;;;3.47;3.10;;;6.70;99.90;;;;;;4987413;28;20109;-43
2023/03/16 08:43:48;;;;;;;4.90;3.05;;;6.80;99.90;;;;;;4987115;28;20030;-43
2023/03/16 08:46:15;;;;;;;6.85;3.60;;;6.90;99.90;;;;;;4985146;28;20884;-43
2023/03/16 08:48:41;;;;;;;4.90;3.45;;;7.10;99.90;;;;;;4987947;28;20026;-43
2023/03/16 08:51:10;;;;;;;6.40;3.80;;;7.10;99.90;;;;;;4986736;28;21489;-44
2023/03/16 08:53:36;;;;;;;3.90;3.42;;;7.20;99.90;;;;;;4991116;28;20026;-44
2023/03/16 08:56:08;;;;;;;7.20;4.25;;;7.20;99.90;;;;;;4986447;28;20022;-43
2023/03/16 08:58:35;;;;;;;6.00;3.92;;;7.30;99.90;;;;;;4987438;28;20049;-44
2023/03/16 09:01:04;;;;;;;4.28;3.58;;;7.30;99.90;;;;;;4986191;28;20564;-43
2023/03/16 09:03:31;;;;;;;5.00;3.90;;;7.30;99.90;;;;;;4987541;28;20141;-43
2023/03/16 09:06:05;;;;;;;4.55;3.42;;;7.30;99.90;;;;;;4986260;28;20072;-44
2023/03/16 09:08:31;;;;;;;4.40;3.58;;;7.30;99.90;;;;;;4987460;28;20061;-44
2023/03/16 09:11:06;;;;;;;4.70;3.33;;;7.40;99.90;;;;;;4986225;28;20033;-44
2023/03/16 09:13:33;;;;;;;4.40;3.50;;;7.30;99.90;;;;;;4986517;28;20132;-44
2023/03/16 09:15:59;;;;;;;5.45;3.25;;;7.40;99.90;;;;;;4985230;28;20076;-43
2023/03/16 09:18:26;;;;;;;5.65;3.33;;;7.40;99.90;;;;;;4987191;28;20025;-43
2023/03/16 09:21:18;;;;;;;3.03;2.70;;;7.40;99.90;;;;;;4990420;28;20148;-44
2023/03/16 09:23:44;;;;;;;3.80;3.17;;;7.50;99.90;;;;;;4995834;28;20390;-43
2023/03/16 09:26:11;;;;;;;3.90;3.13;;;7.50;99.90;;;;;;4998743;28;20709;-44
2023/03/16 09:28:39;;;;;;;4.05;3.20;;;7.60;99.90;;;;;;4997433;28;20037;-44
2023/03/16 09:31:06;;;;;;;5.30;3.70;;;7.70;99.90;;;;;;4998283;28;20500;-43
2023/03/16 09:33:33;;;;;;;4.38;2.90;;;7.70;99.90;;;;;;4998227;28;20100;-43
2023/03/16 09:35:59;;;;;;;4.47;3.30;;;7.80;99.90;;;;;;4998941;28;20084;-43
2023/03/16 09:38:25;;;;;;;3.33;2.40;;;7.80;99.90;;;;;;4999757;28;21066;-43
2023/03/16 09:41:06;;;;;;;7.03;3.47;;;7.90;99.90;;;;;;4999476;28;20482;-43
2023/03/16 09:43:52;;;;;;;4.40;3.30;;;7.90;99.90;;;;;;4999262;28;20045;-43
2023/03/16 09:46:30;;;;;;;5.55;3.50;;;7.90;99.90;;;;;;4999885;28;20033;-43
2023/03/16 09:48:57;;;;;;;4.22;3.50;;;7.90;99.90;;;;;;4999512;28;20052;-42
2023/03/16 09:51:39;;;;;;;5.95;4.10;;;7.90;99.90;;;;;;5000287;28;20029;-42
2023/03/16 09:54:31;;;;;;;3.40;3.10;;;7.90;99.90;;;;;;4999184;28;20053;-44
2023/03/16 09:56:59;;;;;;;3.97;3.60;;;7.90;99.90;;;;;;4998734;28;20297;-44
2023/03/16 09:59:26;;;;;;;3.03;2.70;;;7.90;99.90;;;;;;4998813;28;20025;-44
2023/03/16 10:02:28;;;;;;;4.90;3.30;;;8.00;99.90;;;;;;4999538;28;20381;-44
2023/03/16 10:05:08;;;;;;;5.07;3.00;;;8.00;99.90;;;;;;4997137;28;20033;-45
2023/03/16 10:07:49;;;;;;;3.53;2.80;;;8.00;99.90;;;;;;5000677;28;20034;-44
2023/03/16 10:10:21;;;;;;;4.13;2.90;;;8.10;99.90;;;;;;4998149;28;20026;-44
2023/03/16 10:12:51;;;;;;;5.78;3.30;;;8.10;99.90;;;;;;4999923;28;20030;-43
2023/03/16 10:15:26;;;;;;;4.07;2.88;;;8.20;99.90;;;;;;4999040;28;20096;-44
2023/03/16 10:18:13;;;;;;;3.95;2.70;;;8.30;99.90;;;;;;4998990;28;20030;-44
2023/03/16 10:20:40;;;;;;;3.35;2.70;;;8.40;99.90;;;;;;4999468;28;20733;-44
2023/03/16 10:23:20;;;;;;;5.22;3.05;;;8.50;99.90;;;;;;4998921;28;20756;-44
2023/03/16 10:25:54;;;;;;;4.32;2.63;;;8.60;99.90;;;;;;4998867;28;20041;-44
2023/03/16 10:28:23;;;;;;;6.88;3.30;;;8.70;99.90;;;;;;4998583;28;20029;-44
2023/03/16 10:30:50;;;;;;;6.10;3.10;;;8.90;99.90;;;;;;4999121;28;20026;-43
2023/03/16 10:33:31;;;;;;;4.57;3.30;;;9.00;99.90;;;;;;4999265;28;20073;-44
2023/03/16 10:36:11;;;;;;;3.97;2.78;;;9.10;99.90;;;;;;4997488;28;20044;-43
2023/03/16 10:38:45;;;;;;;4.50;3.00;;;9.30;99.90;;;;;;4999639;28;20025;-42
2023/03/16 10:41:17;;;;;;;2.95;2.58;;;9.50;99.90;;;;;;4998816;28;20029;-43
2023/03/16 10:43:54;;;;;;;3.38;3.08;;;9.60;99.90;;;;;;4999851;28;20041;-43
2023/03/16 10:46:20;;;;;;;5.25;2.67;;;9.70;99.90;;;;;;5001892;28;20017;-43
2023/03/16 10:49:03;;;;;;;3.15;2.60;;;9.80;99.90;;;;;;5002998;28;20088;-43
2023/03/16 10:51:32;;;;;;;3.22;2.38;;;9.90;99.90;;;;;;5001307;28;20022;-43
2023/03/16 10:54:14;;;;;;;3.80;3.00;;;10.00;99.90;;;;;;5001319;28;20801;-43
2023/03/16 10:56:40;;;;;;;2.80;2.60;;;10.00;99.90;;;;;;5001383;28;20034;-43
2023/03/16 10:59:25;;;;;;;3.38;2.50;;;10.00;99.90;;;;;;5001788;28;20030;-44
2023/03/16 11:01:51;;;;;;;4.10;2.97;;;10.10;99.90;;;;;;5002087;28;20022;-42
2023/03/16 11:04:19;;;;;;;3.75;2.63;;;10.00;99.90;;;;;;5000374;28;20204;-44
2023/03/16 11:06:56;;;;;;;4.03;2.75;;;10.00;99.90;;;;;;5002218;28;20846;-43
2023/03/16 11:09:33;;;;;;;5.97;2.88;;;10.00;99.90;;;;;;5002876;28;20405;-43
2023/03/16 11:12:11;;;;;;;3.35;2.65;;;10.10;99.90;;;;;;4998759;28;20014;-42
2023/03/16 11:14:36;;;;;;;4.97;3.15;;;10.20;99.90;;;;;;5002133;28;20092;-43
2023/03/16 11:17:08;;;;;;;5.43;3.00;;;10.30;99.90;;;;;;5001872;28;20025;-44
2023/03/16 11:19:40;;;;;;;3.65;2.70;;;10.40;99.90;;;;;;5002764;28;20034;-43
2023/03/16 11:22:23;;;;;;;3.42;2.60;;;10.40;99.90;;;;;;5000802;28;20037;-44
2023/03/16 11:24:54;;;;;;;3.47;2.70;;;10.60;99.90;;;;;;5002805;28;20132;-44
2023/03/16 11:27:25;;;;;;;3.50;2.72;;;10.60;99.90;;;;;;5000375;28;20029;-44
2023/03/16 11:30:04;;;;;;;3.60;2.70;;;10.70;99.90;;;;;;5002189;28;20033;-43
2023/03/16 11:32:38;;;;;;;3.88;2.80;;;10.80;99.90;;;;;;5001131;28;20156;-44
2023/03/16 11:35:21;;;;;;;5.00;2.67;;;10.80;99.90;;;;;;5001499;28;20037;-43
2023/03/16 11:38:25;;;;;;;4.10;2.90;;;10.90;99.90;;;;;;5001679;28;20037;-43
2023/03/16 11:40:59;;;;;;;3.78;2.95;;;11.00;99.90;;;;;;5002564;28;20018;-43
2023/03/16 11:43:39;;;;;;;5.53;2.90;;;11.00;99.90;;;;;;5001980;28;20025;-43
2023/03/16 11:46:09;;;;;;;5.10;2.72;;;11.10;99.90;;;;;;5001869;28;20125;-43
2023/03/16 11:48:43;;;;;;;4.97;2.90;;;11.10;99.90;;;;;;5001743;28;20030;-43
2023/03/16 11:51:29;;;;;;;4.28;2.70;;;11.20;99.90;;;;;;5001403;28;20021;-43
2023/03/16 11:54:12;;;;;;;4.65;2.50;;;11.20;99.90;;;;;;5002215;28;20033;-43
2023/03/16 11:56:56;;;;;;;2.42;1.90;;;11.20;99.90;;;;;;4999672;28;20041;-43
2023/03/16 11:59:33;;;;;;;2.90;2.10;;;11.30;99.90;;;;;;4993832;28;20026;-43
2023/03/16 12:01:59;;;;;;;4.80;2.45;;;11.40;99.90;;;;;;4997805;28;20045;-44
2023/03/16 12:05:06;;;;;;;2.38;1.65;;;11.40;99.90;;;;;;4993094;28;20034;-42
2023/03/16 12:07:49;;;;;;;3.92;2.50;;;11.50;99.90;;;;;;4895610;29;20033;-43
2023/03/16 12:10:25;;;;;;;7.10;2.05;;;11.60;99.90;;;;;;4988307;28;20488;-44
2023/03/16 12:13:15;;;;;;;3.70;2.30;;;11.60;99.90;;;;;;4993541;28;20048;-44
2023/03/16 12:15:50;;;;;;;4.05;2.20;;;11.70;99.90;;;;;;5000326;28;20048;-43
2023/03/16 12:18:26;;;;;;;4.25;2.40;;;11.70;99.90;;;;;;4990120;28;20046;-43
2023/03/16 12:21:00;;;;;;;3.90;2.10;;;11.80;99.90;;;;;;5000525;28;20488;-43
2023/03/16 12:23:40;;;;;;;2.28;2.05;;;11.80;99.90;;;;;;4990404;28;20026;-43
2023/03/16 12:26:11;;;;;;;3.25;2.13;;;11.90;99.90;;;;;;5000142;28;20132;-43
2023/03/16 12:28:39;;;;;;;3.28;2.03;;;12.00;99.90;;;;;;4991431;28;20137;-43
2023/03/16 12:31:36;;;;;;;2.70;1.92;;;12.00;99.90;;;;;;4997737;28;20026;-43
2023/03/16 12:34:33;;;;;;;3.33;2.33;;;12.10;99.90;;;;;;4987945;28;20038;-43
2023/03/16 12:37:31;;;;;;;2.53;1.98;;;12.20;99.90;;;;;;4961732;28;20031;-43
2023/03/16 12:40:39;;;;;;;3.60;2.40;;;12.20;99.90;;;;;;4948965;28;20809;-43
2023/03/16 12:43:10;;;;;;;3.28;2.35;;;12.20;99.90;;;;;;4982096;28;20082;-44
2023/03/16 12:45:46;;;;;;;3.40;2.50;;;12.20;99.90;;;;;;4990738;28;20125;-44
2023/03/16 12:48:50;;;;;;;3.15;2.20;;;12.10;99.90;;;;;;4998748;28;20177;-44
2023/03/16 12:51:16;;;;;;;2.97;1.80;;;12.10;99.90;;;;;;4914242;29;20036;-44
2023/03/16 12:53:45;;;;;;;3.55;2.20;;;12.10;99.90;;;;;;4979303;28;20049;-44
2023/03/16 12:56:17;;;;;;;4.95;2.45;;;12.10;99.90;;;;;;4991938;28;20037;-43
2023/03/16 12:58:49;;;;;;;2.28;1.80;;;12.10;99.90;;;;;;4997733;28;20045;-44
2023/03/16 13:01:18;;;;;;;3.90;2.17;;;12.10;99.90;;;;;;4991184;28;20633;-43
2023/03/16 13:03:48;;;;;;;5.05;2.10;;;12.10;99.90;;;;;;4998957;28;20022;-43
2023/03/16 13:06:20;;;;;;;3.50;1.88;;;12.00;99.90;;;;;;4978561;28;20030;-44
2023/03/16 13:08:54;;;;;;;2.78;2.20;;;12.00;99.90;;;;;;4999049;28;20034;-43
2023/03/16 13:11:20;;;;;;;4.10;2.13;;;12.10;99.90;;;;;;4989065;28;20026;-43